createdAt,value
2022-09-03T00:01:14.349Z,1.98
2022-09-03T00:03:44.288Z,1.85
2022-09-03T00:06:10.664Z,1.80
2022-09-03T00:08:39.781Z,1.95
2022-09-03T00:11:07.196Z,2.28
2022-09-03T00:13:36.482Z,2.00
2022-09-03T00:16:10.188Z,1.92
2022-09-03T00:18:41.498Z,2.10
2022-09-03T00:21:10.108Z,1.80
2022-09-03T00:23:38.948Z,1.98
2022-09-03T00:26:11.290Z,2.90
2022-09-03T00:29:01.045Z,1.90
2022-09-03T00:31:54.107Z,1.80
2022-09-03T00:34:26.972Z,1.98
2022-09-03T00:36:53.452Z,1.83
2022-09-03T00:39:21.176Z,1.92
2022-09-03T00:41:52.988Z,1.90
2022-09-03T00:44:31.304Z,1.88
2022-09-03T00:46:57.592Z,1.85
2022-09-03T00:49:33.137Z,1.88
2022-09-03T00:51:59.431Z,1.63
2022-09-03T00:54:44.334Z,1.60
2022-09-03T00:57:16.884Z,1.65
2022-09-03T01:02:30.059Z,1.50
2022-09-03T01:05:07.603Z,1.98
2022-09-03T01:07:40.444Z,1.52
2022-09-03T01:10:24.088Z,1.90
2022-09-03T01:12:51.096Z,2.13
2022-09-03T01:15:23.838Z,1.55
2022-09-03T01:17:56.382Z,1.83
2022-09-03T01:23:07.788Z,1.85
2022-09-03T01:25:37.126Z,1.77
2022-09-03T01:28:23.076Z,1.70
2022-09-03T01:31:01.777Z,1.70
2022-09-03T01:33:33.823Z,2.00
2022-09-03T01:36:11.923Z,1.63
2022-09-03T01:38:38.197Z,2.10
2022-09-03T01:41:33.064Z,2.00
2022-09-03T01:44:06.591Z,2.22
2022-09-03T01:46:42.431Z,2.22
2022-09-03T01:49:15.451Z,1.88
2022-09-03T01:51:42.810Z,1.80
2022-09-03T01:54:32.907Z,2.58
2022-09-03T01:57:02.208Z,1.83
2022-09-03T01:59:31.403Z,1.75
2022-09-03T02:02:30.717Z,1.60
2022-09-03T02:05:02.787Z,1.50
2022-09-03T02:07:34.594Z,1.65
2022-09-03T02:10:01.910Z,1.70
2022-09-03T02:12:33.572Z,1.80
2022-09-03T02:15:03.853Z,2.00
2022-09-03T02:17:33.659Z,1.65
2022-09-03T02:20:03.716Z,1.50
2022-09-03T02:22:30.395Z,1.58
2022-09-03T02:24:56.683Z,1.95
2022-09-03T02:27:23.023Z,1.60
2022-09-03T02:29:49.350Z,2.05
2022-09-03T02:32:16.290Z,1.63
2022-09-03T02:34:43.909Z,1.67
2022-09-03T02:37:14.618Z,1.77
2022-09-03T02:39:41.380Z,1.90
2022-09-03T02:42:09.216Z,1.50
2022-09-03T02:44:38.811Z,1.98
2022-09-03T02:47:06.745Z,1.80
2022-09-03T02:49:33.168Z,1.88
2022-09-03T02:52:06.791Z,1.90
2022-09-03T02:54:35.872Z,1.55
2022-09-03T02:57:02.401Z,1.73
2022-09-03T02:59:28.690Z,1.83
2022-09-03T03:01:55.482Z,1.48
2022-09-03T03:04:22.017Z,1.75
2022-09-03T03:06:50.635Z,1.98
2022-09-03T03:09:17.538Z,1.75
2022-09-03T03:11:44.155Z,2.03
2022-09-03T03:14:10.494Z,1.60
2022-09-03T03:16:37.136Z,2.10
2022-09-03T03:19:03.808Z,1.98
2022-09-03T03:21:30.802Z,1.75
2022-09-03T03:23:57.112Z,1.80
2022-09-03T03:26:24.160Z,1.60
2022-09-03T03:28:51.247Z,1.90
2022-09-03T03:31:22.106Z,1.75
2022-09-03T03:33:53.082Z,1.70
2022-09-03T03:36:19.806Z,1.80
2022-09-03T03:38:46.478Z,1.90
2022-09-03T03:41:15.656Z,1.90
2022-09-03T03:43:42.005Z,1.50
2022-09-03T03:46:08.451Z,1.95
2022-09-03T03:48:35.493Z,1.70
2022-09-03T03:51:04.227Z,1.50
2022-09-03T03:53:30.963Z,1.45
2022-09-03T03:55:58.033Z,1.55
2022-09-03T03:58:24.604Z,1.42
2022-09-03T04:00:51.517Z,1.80
2022-09-03T04:03:18.231Z,1.92
2022-09-03T04:05:54.138Z,1.80
2022-09-03T04:08:20.815Z,2.03
2022-09-03T04:10:47.774Z,1.58
2022-09-03T04:13:14.158Z,1.85
2022-09-03T04:15:40.955Z,1.85
2022-09-03T04:18:07.526Z,2.17
2022-09-03T04:20:35.591Z,1.60
2022-09-03T04:23:02.295Z,1.70
2022-09-03T04:25:28.585Z,1.73
2022-09-03T04:27:54.898Z,2.00
2022-09-03T04:30:22.974Z,1.70
2022-09-03T04:32:56.188Z,2.10
2022-09-03T04:35:23.518Z,2.00
2022-09-03T04:37:49.829Z,1.88
2022-09-03T04:40:16.468Z,1.98
2022-09-03T04:42:42.894Z,2.10
2022-09-03T04:45:09.663Z,1.95
2022-09-03T04:47:38.678Z,1.95
2022-09-03T04:50:06.409Z,1.80
2022-09-03T04:52:33.227Z,1.80
2022-09-03T04:54:59.568Z,1.58
2022-09-03T04:57:26.599Z,1.48
2022-09-03T04:59:52.927Z,1.85
2022-09-03T05:02:21.481Z,1.80
2022-09-03T05:04:47.895Z,1.90
2022-09-03T05:07:14.480Z,1.45
2022-09-03T05:09:40.780Z,1.63
2022-09-03T05:12:07.206Z,1.85
2022-09-03T05:14:33.503Z,2.10
2022-09-03T05:16:59.827Z,1.90
2022-09-03T05:19:26.566Z,1.70
2022-09-03T05:21:52.889Z,1.65
2022-09-03T05:24:19.178Z,1.33
2022-09-03T05:26:45.551Z,1.58
2022-09-03T05:29:11.858Z,1.80
2022-09-03T05:31:41.390Z,1.73
2022-09-03T05:34:08.082Z,1.63
2022-09-03T05:36:35.899Z,1.40
2022-09-03T05:39:02.715Z,1.67
2022-09-03T05:41:29.657Z,1.73
2022-09-03T05:43:56.622Z,1.70
2022-09-03T05:46:30.063Z,1.70
2022-09-03T05:48:56.503Z,1.40
2022-09-03T05:51:22.844Z,1.70
2022-09-03T05:53:49.593Z,1.58
2022-09-03T05:56:17.993Z,1.80
2022-09-03T05:58:51.102Z,1.50
2022-09-03T06:01:19.912Z,1.70
2022-09-03T06:03:47.380Z,1.60
2022-09-03T06:06:14.084Z,1.60
2022-09-03T06:08:41.406Z,1.80
2022-09-03T06:11:08.295Z,1.80
2022-09-03T06:13:35.178Z,1.50
2022-09-03T06:16:02.777Z,1.40
2022-09-03T06:18:29.427Z,1.55
2022-09-03T06:20:56.488Z,1.90
2022-09-03T06:23:23.194Z,1.65
2022-09-03T06:26:04.500Z,1.75
2022-09-03T06:28:34.332Z,1.92
2022-09-03T06:31:03.874Z,1.70
2022-09-03T06:33:31.780Z,1.58
2022-09-03T06:35:59.281Z,1.83
2022-09-03T06:38:26.275Z,1.60
2022-09-03T06:40:56.415Z,1.45
2022-09-03T06:43:23.494Z,1.50
2022-09-03T06:45:54.002Z,1.60
2022-09-03T06:48:20.514Z,1.30
2022-09-03T06:50:53.886Z,1.50
2022-09-03T06:53:20.186Z,1.58
2022-09-03T06:55:53.040Z,1.70
2022-09-03T06:58:19.361Z,1.60
2022-09-03T07:00:45.981Z,1.75
2022-09-03T07:03:12.366Z,1.70
2022-09-03T07:05:38.751Z,2.00
2022-09-03T07:08:05.075Z,1.77
2022-09-03T07:10:31.390Z,1.48
2022-09-03T07:12:57.734Z,1.80
2022-09-03T07:15:24.058Z,1.65
2022-09-03T07:17:50.369Z,1.80
2022-09-03T07:20:16.663Z,1.75
2022-09-03T07:22:42.953Z,1.70
2022-09-03T07:25:09.394Z,1.50
2022-09-03T07:27:35.763Z,2.50
2022-09-03T07:30:03.393Z,1.70
2022-09-03T07:32:29.719Z,1.50
2022-09-03T07:34:58.008Z,1.48
2022-09-03T07:37:24.339Z,2.30
2022-09-03T07:39:50.745Z,1.95
2022-09-03T07:42:17.128Z,1.30
2022-09-03T07:44:43.524Z,1.48
2022-09-03T07:47:09.959Z,1.50
2022-09-03T07:49:36.587Z,1.33
2022-09-03T07:52:03.037Z,1.80
2022-09-03T07:54:29.431Z,1.50
2022-09-03T07:56:56.378Z,1.30
2022-09-03T07:59:23.886Z,1.63
2022-09-03T08:01:50.859Z,1.58
2022-09-03T08:04:17.162Z,2.08
2022-09-03T08:06:43.529Z,1.50
2022-09-03T08:09:11.769Z,1.25
2022-09-03T08:11:38.905Z,1.75
2022-09-03T08:14:07.030Z,1.65
2022-09-03T08:16:34.450Z,1.45
2022-09-03T08:19:00.932Z,1.58
2022-09-03T08:21:27.915Z,1.65
2022-09-03T08:24:02.441Z,1.90
2022-09-03T08:26:33.313Z,1.70
2022-09-03T08:28:59.979Z,1.65
2022-09-03T08:31:27.771Z,1.58
2022-09-03T08:33:54.894Z,1.50
2022-09-03T08:36:22.885Z,1.45
2022-09-03T08:38:50.359Z,1.63
2022-09-03T08:41:17.580Z,1.55
2022-09-03T08:43:43.879Z,1.77
2022-09-03T08:46:10.622Z,2.00
2022-09-03T08:48:36.983Z,1.60
2022-09-03T08:51:04.605Z,1.38
2022-09-03T08:53:39.383Z,1.80
2022-09-03T08:56:21.138Z,1.35
2022-09-03T08:58:47.520Z,2.10
2022-09-03T09:01:26.235Z,1.30
2022-09-03T09:04:11.370Z,1.65
2022-09-03T09:06:48.196Z,1.40
2022-09-03T09:09:17.239Z,1.88
2022-09-03T09:11:49.828Z,1.80
2022-09-03T09:14:16.098Z,2.22
2022-09-03T09:17:02.100Z,1.40
2022-09-03T09:19:54.519Z,1.50
2022-09-03T09:22:29.722Z,3.13
2022-09-03T09:24:57.667Z,1.80
2022-09-03T09:27:24.126Z,1.60
2022-09-03T09:29:52.368Z,1.60
2022-09-03T09:32:19.414Z,1.20
2022-09-03T09:34:52.005Z,1.48
2022-09-03T09:37:19.045Z,1.38
2022-09-03T09:39:56.112Z,1.40
2022-09-03T09:42:22.785Z,1.77
2022-09-03T09:44:49.260Z,2.15
2022-09-03T09:47:23.803Z,1.20
2022-09-03T09:49:59.980Z,1.60
2022-09-03T09:52:29.110Z,1.48
2022-09-03T09:55:09.712Z,1.30
2022-09-03T09:57:37.228Z,1.33
2022-09-03T10:00:08.718Z,1.20
2022-09-03T10:02:40.471Z,1.13
2022-09-03T10:05:21.829Z,1.42
2022-09-03T10:08:01.450Z,1.40
2022-09-03T10:10:31.838Z,1.30
2022-09-03T10:13:01.014Z,1.27
2022-09-03T10:15:42.248Z,1.45
2022-09-03T10:18:08.687Z,1.60
2022-09-03T10:20:37.139Z,1.30
2022-09-03T10:23:09.840Z,1.50
2022-09-03T10:25:56.008Z,1.50
2022-09-03T10:28:25.128Z,2.05
2022-09-03T10:31:03.363Z,1.65
2022-09-03T10:33:34.783Z,1.20
2022-09-03T10:36:08.049Z,1.50
2022-09-03T10:38:36.533Z,1.80
2022-09-03T10:41:20.994Z,1.13
2022-09-03T10:43:56.066Z,1.40
2022-09-03T10:46:38.471Z,1.10
2022-09-03T10:49:10.842Z,1.40
2022-09-03T10:51:49.586Z,1.30
2022-09-03T10:54:24.189Z,1.42
2022-09-03T10:57:07.093Z,1.50
2022-09-03T11:00:01.815Z,1.15
2022-09-03T11:02:41.436Z,1.20
2022-09-03T11:05:16.887Z,1.10
2022-09-03T11:07:45.582Z,1.35
2022-09-03T11:10:31.290Z,1.50
2022-09-03T11:12:57.727Z,1.20
2022-09-03T11:15:27.578Z,1.42
2022-09-03T11:17:57.506Z,1.63
2022-09-03T11:20:24.945Z,1.27
2022-09-03T11:22:56.257Z,1.75
2022-09-03T11:25:26.000Z,1.00
2022-09-03T11:28:11.644Z,1.23
2022-09-03T11:30:38.060Z,1.70
2022-09-03T11:33:09.335Z,1.30
2022-09-03T11:35:35.622Z,1.37
2022-09-03T11:38:03.295Z,1.48
2022-09-03T11:40:32.863Z,1.25
2022-09-03T11:43:28.951Z,1.33
2022-09-03T11:46:06.178Z,1.05
2022-09-03T11:48:40.731Z,1.80
2022-09-03T11:51:21.006Z,1.48
2022-09-03T11:53:54.611Z,1.20
2022-09-03T11:56:21.087Z,1.48
2022-09-03T11:58:58.974Z,1.40
2022-09-03T12:01:28.132Z,1.40
2022-09-03T12:04:03.303Z,1.70
2022-09-03T12:06:32.435Z,1.20
2022-09-03T12:09:05.677Z,1.17
2022-09-03T12:11:40.864Z,1.35
2022-09-03T12:14:19.963Z,1.10
2022-09-03T12:17:05.090Z,1.45
2022-09-03T12:19:40.437Z,1.40
2022-09-03T12:22:06.751Z,1.15
2022-09-03T12:24:37.885Z,1.23
2022-09-03T12:27:05.153Z,1.45
2022-09-03T12:29:31.614Z,1.02
2022-09-03T12:32:06.751Z,0.90
2022-09-03T12:34:33.078Z,1.40
2022-09-03T12:36:59.439Z,1.50
2022-09-03T12:42:17.779Z,1.40
2022-09-03T12:44:44.382Z,1.40
2022-09-03T12:47:36.387Z,1.02
2022-09-03T12:50:11.535Z,1.10
2022-09-03T12:53:04.089Z,1.33
2022-09-03T12:55:54.002Z,1.30
2022-09-03T12:58:24.578Z,1.20
2022-09-03T13:00:51.046Z,1.30
2022-09-03T13:03:24.417Z,1.60
2022-09-03T13:05:57.111Z,1.52
2022-09-03T13:08:25.459Z,1.58
2022-09-03T13:11:10.147Z,1.55
2022-09-03T13:13:37.306Z,1.10
2022-09-03T13:16:03.587Z,1.90
2022-09-03T13:18:32.631Z,1.48
2022-09-03T13:21:28.519Z,1.13
2022-09-03T13:24:03.459Z,1.35
2022-09-03T13:26:43.027Z,1.33
2022-09-03T13:29:27.854Z,1.38
2022-09-03T13:31:57.642Z,1.20
2022-09-03T13:34:38.583Z,1.30
2022-09-03T13:37:13.937Z,1.60
2022-09-03T13:39:54.286Z,1.40
2022-09-03T13:42:25.201Z,1.20
2022-09-03T13:44:58.168Z,1.20
2022-09-03T13:48:03.214Z,1.15
2022-09-03T13:50:35.279Z,1.50
2022-09-03T13:53:01.608Z,1.50
2022-09-03T13:55:40.357Z,1.10
2022-09-03T13:58:11.139Z,1.23
2022-09-03T14:00:44.108Z,1.27
2022-09-03T14:03:15.594Z,1.40
2022-09-03T14:05:54.870Z,1.38
2022-09-03T14:08:21.235Z,1.67
2022-09-03T14:11:03.464Z,1.50
2022-09-03T14:13:38.813Z,1.30
2022-09-03T14:16:28.917Z,2.25
2022-09-03T14:19:01.498Z,1.52
2022-09-03T14:21:34.130Z,1.40
2022-09-03T14:24:22.029Z,1.50
2022-09-03T14:26:50.112Z,1.60
2022-09-03T14:29:17.390Z,1.35
2022-09-03T14:31:53.243Z,1.75
2022-09-03T14:34:33.162Z,1.50
2022-09-03T14:37:02.565Z,1.50
2022-09-03T14:39:32.890Z,1.63
2022-09-03T14:44:35.193Z,1.20
2022-09-03T14:47:22.862Z,1.30
2022-09-03T14:49:49.174Z,1.33
2022-09-03T14:52:24.340Z,1.50
2022-09-03T14:55:00.713Z,1.48
2022-09-03T14:57:32.818Z,1.30
2022-09-03T15:00:04.956Z,1.48
2022-09-03T15:02:34.147Z,1.23
2022-09-03T15:05:20.611Z,1.58
2022-09-03T15:07:53.593Z,1.55
2022-09-03T15:10:39.106Z,1.40
2022-09-03T15:13:14.329Z,1.67
2022-09-03T15:15:41.495Z,1.60
2022-09-03T15:18:13.964Z,1.45
2022-09-03T15:20:52.369Z,1.60
2022-09-03T15:23:37.199Z,1.30
2022-09-03T15:26:16.435Z,1.88
2022-09-03T15:28:58.458Z,1.85
2022-09-03T15:31:43.972Z,1.80
2022-09-03T15:34:19.530Z,1.88
2022-09-03T15:36:49.067Z,2.05
2022-09-03T15:39:18.443Z,1.80
2022-09-03T15:41:45.190Z,1.58
2022-09-03T15:44:19.411Z,1.70
2022-09-03T15:46:52.581Z,1.90
2022-09-03T15:49:25.235Z,1.42
2022-09-03T15:51:59.357Z,1.55
2022-09-03T15:54:36.344Z,1.40
2022-09-03T15:57:09.035Z,1.80
2022-09-03T15:59:35.318Z,1.60
2022-09-03T16:02:06.215Z,1.65
2022-09-03T16:04:38.645Z,1.40
2022-09-03T16:07:16.009Z,1.52
2022-09-03T16:09:50.287Z,1.40
2022-09-03T16:12:39.315Z,2.00
2022-09-03T16:15:11.462Z,1.73
2022-09-03T16:17:56.852Z,1.88
2022-09-03T16:20:42.329Z,1.75
2022-09-03T16:23:26.844Z,1.88
2022-09-03T16:25:53.173Z,1.50
2022-09-03T16:28:44.228Z,1.80
2022-09-03T16:31:22.774Z,1.70
2022-09-03T16:34:24.498Z,1.50
2022-09-03T16:36:53.623Z,1.90
2022-09-03T16:39:26.295Z,1.58
2022-09-03T16:41:58.523Z,1.48
2022-09-03T16:44:37.087Z,1.58
2022-09-03T16:47:04.068Z,1.63
2022-09-03T16:49:53.318Z,1.80
2022-09-03T16:52:39.284Z,3.35
2022-09-03T16:55:08.663Z,1.88
2022-09-03T16:57:54.611Z,1.70
2022-09-03T17:00:21.761Z,1.58
2022-09-03T17:03:11.980Z,1.60
2022-09-03T17:05:51.202Z,1.80
2022-09-03T17:08:36.815Z,1.67
2022-09-03T17:11:08.977Z,1.50
2022-09-03T17:13:42.521Z,1.65
2022-09-03T17:16:24.895Z,1.92
2022-09-03T17:19:06.438Z,2.05
2022-09-03T17:21:39.106Z,1.70
2022-09-03T17:24:24.101Z,1.88
2022-09-03T17:26:51.986Z,1.63
2022-09-03T17:29:36.858Z,2.03
2022-09-03T17:32:15.215Z,1.80
2022-09-03T17:35:00.282Z,2.00
2022-09-03T17:37:46.255Z,2.08
2022-09-03T17:40:12.545Z,2.53
2022-09-03T17:42:59.723Z,2.38
2022-09-03T17:45:47.179Z,2.30
2022-09-03T17:48:13.453Z,2.53
2022-09-03T17:50:51.906Z,2.10
2022-09-03T17:53:18.902Z,2.00
2022-09-03T17:55:53.078Z,2.28
2022-09-03T17:58:22.608Z,2.20
2022-09-03T18:00:51.759Z,1.83
2022-09-03T18:03:27.373Z,1.83
2022-09-03T18:06:00.958Z,2.30
2022-09-03T18:08:34.920Z,1.98
2022-09-03T18:11:10.239Z,2.63
2022-09-03T18:13:47.340Z,2.22
2022-09-03T18:16:24.049Z,1.85
2022-09-03T18:18:51.926Z,2.00
2022-09-03T18:21:40.633Z,2.80
2022-09-03T18:24:36.352Z,2.65
2022-09-03T18:27:26.897Z,2.33
2022-09-03T18:30:16.041Z,1.90
2022-09-03T18:33:01.563Z,2.60
2022-09-03T18:35:49.115Z,2.58
2022-09-03T18:38:36.358Z,2.42
2022-09-03T18:41:26.142Z,2.45
2022-09-03T18:44:11.014Z,2.90
2022-09-03T18:50:23.849Z,3.03
2022-09-03T18:53:18.375Z,2.60
2022-09-03T18:56:06.194Z,2.60
2022-09-03T18:59:09.743Z,3.20
2022-09-03T19:01:58.777Z,2.40
2022-09-03T19:04:43.658Z,2.30
2022-09-03T19:07:30.921Z,2.42
2022-09-03T19:10:18.861Z,2.80
2022-09-03T19:13:11.306Z,3.08
2022-09-03T19:16:08.291Z,2.45
2022-09-03T19:18:53.559Z,2.70
2022-09-03T19:21:47.059Z,2.58
2022-09-03T19:24:31.959Z,2.90
2022-09-03T19:27:53.076Z,2.45
2022-09-03T19:30:50.433Z,2.90
2022-09-03T19:36:20.468Z,2.58
2022-09-03T19:39:23.304Z,3.17
2022-09-03T19:42:32.274Z,2.97
2022-09-03T19:45:30.711Z,3.30
2022-09-03T19:48:21.712Z,3.28
2022-09-03T19:51:21.183Z,3.47
2022-09-03T19:54:06.551Z,3.83
2022-09-03T19:56:51.977Z,5.00
2022-09-03T19:59:38.769Z,3.97
2022-09-03T20:02:24.211Z,4.70
2022-09-03T20:05:16.508Z,5.43
2022-09-03T20:08:01.499Z,4.70
2022-09-03T20:10:27.866Z,5.57
2022-09-03T20:13:14.238Z,4.15
2022-09-03T20:15:46.429Z,4.05
2022-09-03T20:20:44.827Z,3.40
2022-09-03T20:23:12.463Z,3.92
2022-09-03T20:25:41.519Z,3.97
2022-09-03T20:28:26.690Z,3.85
2022-09-03T20:30:59.176Z,3.80
2022-09-03T20:33:42.071Z,3.75
2022-09-03T20:36:31.700Z,3.53
2022-09-03T20:39:24.627Z,4.25
2022-09-03T20:41:57.754Z,4.78
2022-09-03T20:44:42.691Z,4.78
2022-09-03T20:47:21.229Z,4.97
2022-09-03T20:50:04.096Z,4.28
2022-09-03T20:52:45.840Z,4.35
2022-09-03T20:55:23.961Z,4.57
2022-09-03T20:57:53.088Z,4.32
2022-09-03T21:00:21.022Z,4.20
2022-09-03T21:02:59.566Z,3.90
2022-09-03T21:05:51.931Z,4.05
2022-09-03T21:08:37.075Z,4.22
2022-09-03T21:11:06.873Z,4.00
2022-09-03T21:13:38.570Z,4.20
2022-09-03T21:16:20.403Z,3.85
2022-09-03T21:18:46.726Z,4.03
2022-09-03T21:21:20.109Z,4.53
2022-09-03T21:23:48.638Z,4.35
2022-09-03T21:26:24.585Z,4.65
2022-09-03T21:28:53.722Z,4.18
2022-09-03T21:31:24.294Z,5.05
2022-09-03T21:33:54.080Z,4.82
2022-09-03T21:36:25.779Z,4.45
2022-09-03T21:38:59.617Z,3.95
2022-09-03T21:41:29.215Z,5.15
2022-09-03T21:44:04.676Z,5.40
2022-09-03T21:46:34.118Z,5.30
2022-09-03T21:49:07.904Z,4.55
2022-09-03T21:51:58.281Z,4.90
2022-09-03T21:54:28.920Z,4.75
2022-09-03T21:56:58.332Z,4.40
2022-09-03T21:59:27.462Z,4.43
2022-09-03T22:02:00.711Z,4.97
2022-09-03T22:04:27.082Z,5.25
2022-09-03T22:07:08.484Z,5.20
2022-09-03T22:09:45.411Z,5.25
2022-09-03T22:12:14.942Z,5.97
2022-09-03T22:14:47.854Z,5.82
2022-09-03T22:17:17.207Z,6.55
2022-09-03T22:19:45.885Z,5.60
2022-09-03T22:22:19.413Z,5.13
2022-09-03T22:25:08.943Z,5.88
2022-09-03T22:28:02.004Z,5.75
2022-09-03T22:30:39.784Z,5.70
2022-09-03T22:33:44.610Z,5.93
2022-09-03T22:36:14.937Z,5.65
2022-09-03T22:39:07.118Z,6.47
2022-09-03T22:41:34.583Z,5.63
2022-09-03T22:44:09.390Z,6.05
2022-09-03T22:46:46.087Z,6.82
2022-09-03T22:49:24.122Z,5.90
2022-09-03T22:51:54.297Z,6.22
2022-09-03T22:54:43.632Z,5.78
2022-09-03T22:57:10.525Z,5.78
2022-09-03T22:59:39.361Z,5.25
2022-09-03T23:02:08.427Z,5.65
2022-09-03T23:04:47.764Z,5.55
2022-09-03T23:07:24.771Z,6.20
2022-09-03T23:09:54.810Z,6.10
2022-09-03T23:12:40.820Z,6.03
2022-09-03T23:15:11.252Z,6.45
2022-09-03T23:17:40.539Z,6.40
2022-09-03T23:20:13.849Z,6.82
2022-09-03T23:22:42.014Z,7.25
2022-09-03T23:25:13.806Z,7.38
2022-09-03T23:27:53.488Z,7.93
2022-09-03T23:30:19.835Z,7.72
2022-09-03T23:32:46.535Z,6.82
2022-09-03T23:35:16.114Z,7.75
2022-09-03T23:37:48.574Z,7.85
2022-09-03T23:42:50.034Z,7.53
2022-09-03T23:45:24.503Z,8.00
2022-09-03T23:47:50.935Z,7.63
2022-09-03T23:50:38.430Z,8.00
2022-09-03T23:53:23.158Z,7.40
2022-09-03T23:55:50.027Z,8.18
2022-09-03T23:58:44.906Z,8.45
